sensor_id;sensor_type;location;lat;lon;timestamp;pressure;altitude;pressure_sealevel;temperature
69545;BMP180;56766;52.260;20.746;2023-02-01T00:00:54;99083.00;;;3.00
69545;BMP180;56766;52.260;20.746;2023-02-01T00:03:26;99086.00;;;3.00
69545;BMP180;56766;52.260;20.746;2023-02-01T00:05:58;99089.40;;;3.00
69545;BMP180;56766;52.260;20.746;2023-02-01T00:08:26;99093.00;;;3.00
69545;BMP180;56766;52.260;20.746;2023-02-01T00:11:09;99090.00;;;3.00
69545;BMP180;56766;52.260;20.746;2023-02-01T00:13:40;99098.60;;;3.00
69545;BMP180;56766;52.260;20.746;2023-02-01T00:16:11;99088.60;;;3.00
69545;BMP180;56766;52.260;20.746;2023-02-01T00:18:45;99100.80;;;3.00
69545;BMP180;56766;52.260;20.746;2023-02-01T00:21:15;99095.20;;;3.00
69545;BMP180;56766;52.260;20.746;2023-02-01T00:23:42;99103.40;;;3.00
69545;BMP180;56766;52.260;20.746;2023-02-01T00:26:30;99100.40;;;3.00
69545;BMP180;56766;52.260;20.746;2023-02-01T00:28:57;99098.80;;;3.00
69545;BMP180;56766;52.260;20.746;2023-02-01T00:31:24;99101.00;;;3.00
69545;BMP180;56766;52.260;20.746;2023-02-01T00:33:51;99101.80;;;3.00
69545;BMP180;56766;52.260;20.746;2023-02-01T00:36:17;99108.80;;;3.00
69545;BMP180;56766;52.260;20.746;2023-02-01T00:38:44;99117.00;;;3.00
69545;BMP180;56766;52.260;20.746;2023-02-01T00:41:15;99115.60;;;3.00
69545;BMP180;56766;52.260;20.746;2023-02-01T00:43:43;99119.20;;;3.00
69545;BMP180;56766;52.260;20.746;2023-02-01T00:46:13;99117.80;;;3.00
69545;BMP180;56766;52.260;20.746;2023-02-01T00:48:40;99116.80;;;3.00
69545;BMP180;56766;52.260;20.746;2023-02-01T00:51:12;99111.80;;;2.94
69545;BMP180;56766;52.260;20.746;2023-02-01T00:53:40;99120.00;;;2.90
69545;BMP180;56766;52.260;20.746;2023-02-01T00:56:07;99121.40;;;2.90
69545;BMP180;56766;52.260;20.746;2023-02-01T00:58:34;99117.40;;;2.80
69545;BMP180;56766;52.260;20.746;2023-02-01T01:01:09;99127.20;;;2.80
69545;BMP180;56766;52.260;20.746;2023-02-01T01:03:44;99122.80;;;2.80
69545;BMP180;56766;52.260;20.746;2023-02-01T01:06:15;99116.60;;;2.70
69545;BMP180;56766;52.260;20.746;2023-02-01T01:08:43;99112.00;;;2.70
69545;BMP180;56766;52.260;20.746;2023-02-01T01:11:21;99110.40;;;2.60
69545;BMP180;56766;52.260;20.746;2023-02-01T01:13:51;99114.80;;;2.56
69545;BMP180;56766;52.260;20.746;2023-02-01T01:16:20;99118.60;;;2.50
69545;BMP180;56766;52.260;20.746;2023-02-01T01:18:47;99128.00;;;2.48
69545;BMP180;56766;52.260;20.746;2023-02-01T01:21:16;99132.20;;;2.40
69545;BMP180;56766;52.260;20.746;2023-02-01T01:23:45;99133.40;;;2.50
69545;BMP180;56766;52.260;20.746;2023-02-01T01:26:16;99129.00;;;2.48
69545;BMP180;56766;52.260;20.746;2023-02-01T01:28:45;99129.60;;;2.50
69545;BMP180;56766;52.260;20.746;2023-02-01T01:31:15;99128.80;;;2.50
69545;BMP180;56766;52.260;20.746;2023-02-01T01:33:43;99134.60;;;2.50
69545;BMP180;56766;52.260;20.746;2023-02-01T01:36:12;99131.60;;;2.50
69545;BMP180;56766;52.260;20.746;2023-02-01T01:38:41;99129.80;;;2.42
69545;BMP180;56766;52.260;20.746;2023-02-01T01:41:18;99140.00;;;2.40
69545;BMP180;56766;52.260;20.746;2023-02-01T01:43:55;99144.80;;;2.30
69545;BMP180;56766;52.260;20.746;2023-02-01T01:46:36;99135.80;;;2.26
69545;BMP180;56766;52.260;20.746;2023-02-01T01:49:16;99148.20;;;2.20
69545;BMP180;56766;52.260;20.746;2023-02-01T01:51:55;99148.20;;;2.20
69545;BMP180;56766;52.260;20.746;2023-02-01T01:54:33;99149.20;;;2.20
69545;BMP180;56766;52.260;20.746;2023-02-01T01:57:10;99155.80;;;2.30
69545;BMP180;56766;52.260;20.746;2023-02-01T01:59:43;99151.00;;;2.30
69545;BMP180;56766;52.260;20.746;2023-02-01T02:02:13;99151.60;;;2.30
69545;BMP180;56766;52.260;20.746;2023-02-01T02:04:40;99149.80;;;2.40
69545;BMP180;56766;52.260;20.746;2023-02-01T02:07:20;99152.60;;;2.40
69545;BMP180;56766;52.260;20.746;2023-02-01T02:09:48;99152.80;;;2.40
69545;BMP180;56766;52.260;20.746;2023-02-01T02:12:14;99156.20;;;2.40
69545;BMP180;56766;52.260;20.746;2023-02-01T02:14:41;99150.80;;;2.40
69545;BMP180;56766;52.260;20.746;2023-02-01T02:17:41;99165.20;;;2.40
69545;BMP180;56766;52.260;20.746;2023-02-01T02:32:23;99173.00;;;2.50
69545;BMP180;56766;52.260;20.746;2023-02-01T02:43:47;99161.60;;;2.32
69545;BMP180;56766;52.260;20.746;2023-02-01T02:46:38;99161.60;;;2.30
69545;BMP180;56766;52.260;20.746;2023-02-01T02:49:34;99170.00;;;2.26
69545;BMP180;56766;52.260;20.746;2023-02-01T02:52:17;99173.80;;;2.20
69545;BMP180;56766;52.260;20.746;2023-02-01T02:55:07;99171.40;;;2.20
69545;BMP180;56766;52.260;20.746;2023-02-01T02:57:43;99175.40;;;2.20
69545;BMP180;56766;52.260;20.746;2023-02-01T03:00:35;99173.60;;;2.20
69545;BMP180;56766;52.260;20.746;2023-02-01T03:03:21;99181.20;;;2.20
69545;BMP180;56766;52.260;20.746;2023-02-01T03:06:14;99188.80;;;2.20
69545;BMP180;56766;52.260;20.746;2023-02-01T03:08:42;99183.80;;;2.30
69545;BMP180;56766;52.260;20.746;2023-02-01T03:11:15;99173.40;;;2.30
69545;BMP180;56766;52.260;20.746;2023-02-01T03:13:52;99182.00;;;2.30
69545;BMP180;56766;52.260;20.746;2023-02-01T03:16:46;99192.20;;;2.30
69545;BMP180;56766;52.260;20.746;2023-02-01T03:19:34;99201.00;;;2.30
69545;BMP180;56766;52.260;20.746;2023-02-01T03:22:08;99204.20;;;2.30
69545;BMP180;56766;52.260;20.746;2023-02-01T03:27:36;99208.20;;;2.30
69545;BMP180;56766;52.260;20.746;2023-02-01T03:30:17;99204.20;;;2.32
69545;BMP180;56766;52.260;20.746;2023-02-01T03:32:50;99205.40;;;2.40
69545;BMP180;56766;52.260;20.746;2023-02-01T03:35:57;99203.00;;;2.40
69545;BMP180;56766;52.260;20.746;2023-02-01T03:38:47;99199.00;;;2.40
69545;BMP180;56766;52.260;20.746;2023-02-01T03:44:16;99200.60;;;2.40
69545;BMP180;56766;52.260;20.746;2023-02-01T03:46:58;99204.00;;;2.50
69545;BMP180;56766;52.260;20.746;2023-02-01T03:49:34;99206.20;;;2.50
69545;BMP180;56766;52.260;20.746;2023-02-01T03:52:03;99202.80;;;2.50
69545;BMP180;56766;52.260;20.746;2023-02-01T03:54:33;99206.60;;;2.50
69545;BMP180;56766;52.260;20.746;2023-02-01T03:57:09;99201.80;;;2.50
69545;BMP180;56766;52.260;20.746;2023-02-01T03:59:44;99199.60;;;2.50
69545;BMP180;56766;52.260;20.746;2023-02-01T04:02:12;99199.40;;;2.50
69545;BMP180;56766;52.260;20.746;2023-02-01T04:04:38;99204.80;;;2.50
69545;BMP180;56766;52.260;20.746;2023-02-01T04:07:05;99205.00;;;2.50
69545;BMP180;56766;52.260;20.746;2023-02-01T04:09:32;99197.20;;;2.50
69545;BMP180;56766;52.260;20.746;2023-02-01T04:11:59;99193.00;;;2.50
69545;BMP180;56766;52.260;20.746;2023-02-01T04:14:25;99199.60;;;2.50
69545;BMP180;56766;52.260;20.746;2023-02-01T04:16:52;99207.20;;;2.50
69545;BMP180;56766;52.260;20.746;2023-02-01T04:19:19;99204.20;;;2.50
69545;BMP180;56766;52.260;20.746;2023-02-01T04:21:45;99208.80;;;2.50
69545;BMP180;56766;52.260;20.746;2023-02-01T04:24:12;99203.60;;;2.50
69545;BMP180;56766;52.260;20.746;2023-02-01T04:26:39;99203.80;;;2.50
69545;BMP180;56766;52.260;20.746;2023-02-01T04:29:05;99200.60;;;2.50
69545;BMP180;56766;52.260;20.746;2023-02-01T04:31:32;99202.40;;;2.50
69545;BMP180;56766;52.260;20.746;2023-02-01T04:33:58;99199.80;;;2.50
69545;BMP180;56766;52.260;20.746;2023-02-01T04:36:25;99208.00;;;2.50
69545;BMP180;56766;52.260;20.746;2023-02-01T04:38:52;99206.80;;;2.50
69545;BMP180;56766;52.260;20.746;2023-02-01T04:41:20;99213.20;;;2.50
69545;BMP180;56766;52.260;20.746;2023-02-01T04:43:49;99213.20;;;2.50
69545;BMP180;56766;52.260;20.746;2023-02-01T04:46:17;99222.00;;;2.52
69545;BMP180;56766;52.260;20.746;2023-02-01T04:48:43;99216.40;;;2.50
69545;BMP180;56766;52.260;20.746;2023-02-01T04:51:12;99221.20;;;2.50
69545;BMP180;56766;52.260;20.746;2023-02-01T04:53:38;99223.80;;;2.50
69545;BMP180;56766;52.260;20.746;2023-02-01T04:56:06;99228.40;;;2.50
69545;BMP180;56766;52.260;20.746;2023-02-01T04:58:32;99227.40;;;2.50
69545;BMP180;56766;52.260;20.746;2023-02-01T05:01:03;99233.20;;;2.50
69545;BMP180;56766;52.260;20.746;2023-02-01T05:03:33;99228.00;;;2.50
69545;BMP180;56766;52.260;20.746;2023-02-01T05:06:00;99224.80;;;2.50
69545;BMP180;56766;52.260;20.746;2023-02-01T05:08:27;99229.60;;;2.50
69545;BMP180;56766;52.260;20.746;2023-02-01T05:10:55;99232.20;;;2.50
69545;BMP180;56766;52.260;20.746;2023-02-01T05:13:21;99227.00;;;2.50
69545;BMP180;56766;52.260;20.746;2023-02-01T05:16:07;99226.00;;;2.50
69545;BMP180;56766;52.260;20.746;2023-02-01T05:18:34;99229.00;;;2.50
69545;BMP180;56766;52.260;20.746;2023-02-01T05:21:01;99228.40;;;2.50
69545;BMP180;56766;52.260;20.746;2023-02-01T05:23:28;99225.00;;;2.50
69545;BMP180;56766;52.260;20.746;2023-02-01T05:25:59;99222.60;;;2.50
69545;BMP180;56766;52.260;20.746;2023-02-01T05:28:28;99218.40;;;2.50
69545;BMP180;56766;52.260;20.746;2023-02-01T05:30:54;99214.40;;;2.50
69545;BMP180;56766;52.260;20.746;2023-02-01T05:33:21;99216.60;;;2.50
69545;BMP180;56766;52.260;20.746;2023-02-01T05:35:47;99212.40;;;2.50
69545;BMP180;56766;52.260;20.746;2023-02-01T05:38:14;99212.80;;;2.40
69545;BMP180;56766;52.260;20.746;2023-02-01T05:40:40;99213.60;;;2.40
69545;BMP180;56766;52.260;20.746;2023-02-01T05:43:07;99214.20;;;2.32
69545;BMP180;56766;52.260;20.746;2023-02-01T05:45:33;99215.00;;;2.30
69545;BMP180;56766;52.260;20.746;2023-02-01T05:48:00;99217.80;;;2.30
69545;BMP180;56766;52.260;20.746;2023-02-01T05:50:26;99216.80;;;2.30
69545;BMP180;56766;52.260;20.746;2023-02-01T05:52:53;99215.60;;;2.30
69545;BMP180;56766;52.260;20.746;2023-02-01T05:55:20;99215.80;;;2.30
69545;BMP180;56766;52.260;20.746;2023-02-01T05:57:47;99221.20;;;2.30
69545;BMP180;56766;52.260;20.746;2023-02-01T06:00:13;99220.80;;;2.32
69545;BMP180;56766;52.260;20.746;2023-02-01T06:02:40;99216.80;;;2.40
69545;BMP180;56766;52.260;20.746;2023-02-01T06:05:07;99217.60;;;2.40
69545;BMP180;56766;52.260;20.746;2023-02-01T06:07:34;99211.00;;;2.40
69545;BMP180;56766;52.260;20.746;2023-02-01T06:10:00;99208.20;;;2.40
69545;BMP180;56766;52.260;20.746;2023-02-01T06:12:27;99214.40;;;2.40
69545;BMP180;56766;52.260;20.746;2023-02-01T06:14:55;99212.80;;;2.40
69545;BMP180;56766;52.260;20.746;2023-02-01T06:17:21;99212.20;;;2.40
69545;BMP180;56766;52.260;20.746;2023-02-01T06:19:48;99208.00;;;2.40
69545;BMP180;56766;52.260;20.746;2023-02-01T06:22:15;99215.60;;;2.40
69545;BMP180;56766;52.260;20.746;2023-02-01T06:24:42;99211.00;;;2.40
69545;BMP180;56766;52.260;20.746;2023-02-01T06:27:09;99211.40;;;2.40
69545;BMP180;56766;52.260;20.746;2023-02-01T06:29:39;99218.40;;;2.40
69545;BMP180;56766;52.260;20.746;2023-02-01T06:32:06;99214.20;;;2.46
69545;BMP180;56766;52.260;20.746;2023-02-01T06:34:32;99218.00;;;2.48
69545;BMP180;56766;52.260;20.746;2023-02-01T06:36:59;99208.60;;;2.50
69545;BMP180;56766;52.260;20.746;2023-02-01T06:39:26;99203.40;;;2.50
69545;BMP180;56766;52.260;20.746;2023-02-01T06:41:54;99209.00;;;2.50
69545;BMP180;56766;52.260;20.746;2023-02-01T06:44:21;99205.20;;;2.50
69545;BMP180;56766;52.260;20.746;2023-02-01T06:46:47;99202.80;;;2.50
69545;BMP180;56766;52.260;20.746;2023-02-01T06:49:14;99201.60;;;2.50
69545;BMP180;56766;52.260;20.746;2023-02-01T06:51:40;99204.20;;;2.50
69545;BMP180;56766;52.260;20.746;2023-02-01T06:54:07;99207.60;;;2.50
69545;BMP180;56766;52.260;20.746;2023-02-01T06:56:33;99207.00;;;2.50
69545;BMP180;56766;52.260;20.746;2023-02-01T06:59:04;99204.20;;;2.50
69545;BMP180;56766;52.260;20.746;2023-02-01T07:01:31;99205.40;;;2.56
69545;BMP180;56766;52.260;20.746;2023-02-01T07:03:57;99201.20;;;2.54
69545;BMP180;56766;52.260;20.746;2023-02-01T07:06:24;99209.80;;;2.60
69545;BMP180;56766;52.260;20.746;2023-02-01T07:08:51;99211.00;;;2.60
69545;BMP180;56766;52.260;20.746;2023-02-01T07:11:19;99218.20;;;2.60
69545;BMP180;56766;52.260;20.746;2023-02-01T07:13:45;99211.80;;;2.60
69545;BMP180;56766;52.260;20.746;2023-02-01T07:16:17;99219.20;;;2.62
69545;BMP180;56766;52.260;20.746;2023-02-01T07:18:44;99220.80;;;2.60
69545;BMP180;56766;52.260;20.746;2023-02-01T07:21:12;99215.20;;;2.64
69545;BMP180;56766;52.260;20.746;2023-02-01T07:23:39;99210.40;;;2.70
69545;BMP180;56766;52.260;20.746;2023-02-01T07:26:10;99214.00;;;2.70
69545;BMP180;56766;52.260;20.746;2023-02-01T07:28:40;99217.80;;;2.70
69545;BMP180;56766;52.260;20.746;2023-02-01T07:31:17;99225.20;;;2.72
69545;BMP180;56766;52.260;20.746;2023-02-01T07:33:49;99224.60;;;2.80
69545;BMP180;56766;52.260;20.746;2023-02-01T07:36:19;99231.20;;;2.80
69545;BMP180;56766;52.260;20.746;2023-02-01T07:38:47;99223.20;;;2.80
69545;BMP180;56766;52.260;20.746;2023-02-01T07:41:14;99224.40;;;2.80
69545;BMP180;56766;52.260;20.746;2023-02-01T07:43:41;99222.00;;;2.82
69545;BMP180;56766;52.260;20.746;2023-02-01T07:46:11;99227.80;;;2.82
69545;BMP180;56766;52.260;20.746;2023-02-01T07:48:38;99224.80;;;2.82
69545;BMP180;56766;52.260;20.746;2023-02-01T07:51:12;99221.40;;;2.90
69545;BMP180;56766;52.260;20.746;2023-02-01T07:53:40;99221.80;;;2.90
69545;BMP180;56766;52.260;20.746;2023-02-01T07:56:20;99215.40;;;2.90
69545;BMP180;56766;52.260;20.746;2023-02-01T07:58:54;99209.20;;;2.90
69545;BMP180;56766;52.260;20.746;2023-02-01T08:01:25;99210.80;;;2.90
69545;BMP180;56766;52.260;20.746;2023-02-01T08:04:12;99205.20;;;2.90
69545;BMP180;56766;52.260;20.746;2023-02-01T08:06:40;99202.00;;;2.96
69545;BMP180;56766;52.260;20.746;2023-02-01T08:09:07;99196.20;;;3.00
69545;BMP180;56766;52.260;20.746;2023-02-01T08:11:34;99193.80;;;3.00
69545;BMP180;56766;52.260;20.746;2023-02-01T08:14:05;99201.20;;;3.00
69545;BMP180;56766;52.260;20.746;2023-02-01T08:16:34;99201.40;;;3.00
69545;BMP180;56766;52.260;20.746;2023-02-01T08:19:10;99208.00;;;3.00
69545;BMP180;56766;52.260;20.746;2023-02-01T08:22:05;99198.00;;;3.00
69545;BMP180;56766;52.260;20.746;2023-02-01T08:24:33;99200.60;;;3.06
69545;BMP180;56766;52.260;20.746;2023-02-01T08:27:01;99206.00;;;3.10
69545;BMP180;56766;52.260;20.746;2023-02-01T08:29:28;99206.60;;;3.16
69545;BMP180;56766;52.260;20.746;2023-02-01T08:31:55;99204.40;;;3.14
69545;BMP180;56766;52.260;20.746;2023-02-01T08:34:22;99204.20;;;3.18
69545;BMP180;56766;52.260;20.746;2023-02-01T08:36:49;99202.40;;;3.20
69545;BMP180;56766;52.260;20.746;2023-02-01T08:39:15;99204.40;;;3.20
69545;BMP180;56766;52.260;20.746;2023-02-01T08:41:42;99206.80;;;3.20
69545;BMP180;56766;52.260;20.746;2023-02-01T08:44:29;99198.60;;;3.30
69545;BMP180;56766;52.260;20.746;2023-02-01T08:46:55;99206.20;;;3.30
69545;BMP180;56766;52.260;20.746;2023-02-01T08:49:22;99201.80;;;3.22
69545;BMP180;56766;52.260;20.746;2023-02-01T08:51:48;99199.20;;;3.20
69545;BMP180;56766;52.260;20.746;2023-02-01T08:54:15;99200.20;;;3.20
69545;BMP180;56766;52.260;20.746;2023-02-01T08:56:42;99204.20;;;3.28
69545;BMP180;56766;52.260;20.746;2023-02-01T08:59:09;99205.00;;;3.30
69545;BMP180;56766;52.260;20.746;2023-02-01T09:01:35;99219.00;;;3.32
69545;BMP180;56766;52.260;20.746;2023-02-01T09:04:02;99221.20;;;3.30
69545;BMP180;56766;52.260;20.746;2023-02-01T09:06:28;99218.00;;;3.30
69545;BMP180;56766;52.260;20.746;2023-02-01T09:08:56;99215.40;;;3.30
69545;BMP180;56766;52.260;20.746;2023-02-01T09:11:22;99214.00;;;3.30
69545;BMP180;56766;52.260;20.746;2023-02-01T09:13:49;99211.80;;;3.30
69545;BMP180;56766;52.260;20.746;2023-02-01T09:16:15;99216.60;;;3.34
69545;BMP180;56766;52.260;20.746;2023-02-01T09:18:42;99216.60;;;3.40
69545;BMP180;56766;52.260;20.746;2023-02-01T09:21:09;99209.40;;;3.40
69545;BMP180;56766;52.260;20.746;2023-02-01T09:23:35;99213.20;;;3.50
69545;BMP180;56766;52.260;20.746;2023-02-01T09:26:04;99211.40;;;3.50
69545;BMP180;56766;52.260;20.746;2023-02-01T09:28:32;99210.20;;;3.58
69545;BMP180;56766;52.260;20.746;2023-02-01T09:31:01;99208.40;;;3.60
69545;BMP180;56766;52.260;20.746;2023-02-01T09:33:28;99209.20;;;3.60
69545;BMP180;56766;52.260;20.746;2023-02-01T09:36:01;99207.40;;;3.70
69545;BMP180;56766;52.260;20.746;2023-02-01T09:38:29;99198.60;;;3.80
69545;BMP180;56766;52.260;20.746;2023-02-01T09:40:58;99195.80;;;3.98
69545;BMP180;56766;52.260;20.746;2023-02-01T09:43:55;99204.80;;;4.10
69545;BMP180;56766;52.260;20.746;2023-02-01T09:46:29;99193.20;;;4.20
69545;BMP180;56766;52.260;20.746;2023-02-01T09:49:11;99193.00;;;4.30
69545;BMP180;56766;52.260;20.746;2023-02-01T09:51:46;99188.00;;;4.40
69545;BMP180;56766;52.260;20.746;2023-02-01T09:54:20;99191.60;;;4.42
69545;BMP180;56766;52.260;20.746;2023-02-01T09:57:06;99201.20;;;4.50
69545;BMP180;56766;52.260;20.746;2023-02-01T09:59:43;99197.80;;;4.58
69545;BMP180;56766;52.260;20.746;2023-02-01T10:02:27;99196.20;;;4.60
69545;BMP180;56766;52.260;20.746;2023-02-01T10:04:59;99200.40;;;4.70
69545;BMP180;56766;52.260;20.746;2023-02-01T10:07:51;99198.00;;;4.62
69545;BMP180;56766;52.260;20.746;2023-02-01T10:10:46;99196.60;;;4.60
69545;BMP180;56766;52.260;20.746;2023-02-01T10:13:26;99195.20;;;4.56
69545;BMP180;56766;52.260;20.746;2023-02-01T10:22:05;99187.80;;;4.40
69545;BMP180;56766;52.260;20.746;2023-02-01T10:25:23;99188.00;;;4.40
69545;BMP180;56766;52.260;20.746;2023-02-01T10:27:53;99191.40;;;4.40
69545;BMP180;56766;52.260;20.746;2023-02-01T10:30:23;99190.00;;;4.50
69545;BMP180;56766;52.260;20.746;2023-02-01T10:33:27;99190.80;;;4.60
69545;BMP180;56766;52.260;20.746;2023-02-01T10:36:35;99192.00;;;4.70
69545;BMP180;56766;52.260;20.746;2023-02-01T10:39:05;99192.60;;;4.70
69545;BMP180;56766;52.260;20.746;2023-02-01T10:41:38;99195.20;;;4.70
69545;BMP180;56766;52.260;20.746;2023-02-01T10:44:15;99190.80;;;4.80
69545;BMP180;56766;52.260;20.746;2023-02-01T10:46:42;99188.40;;;4.80
69545;BMP180;56766;52.260;20.746;2023-02-01T10:49:45;99182.20;;;4.80
69545;BMP180;56766;52.260;20.746;2023-02-01T10:52:46;99184.00;;;4.90
69545;BMP180;56766;52.260;20.746;2023-02-01T10:55:38;99171.40;;;5.00
69545;BMP180;56766;52.260;20.746;2023-02-01T10:58:18;99179.20;;;5.00
69545;BMP180;56766;52.260;20.746;2023-02-01T11:00:53;99179.80;;;5.00
69545;BMP180;56766;52.260;20.746;2023-02-01T11:03:41;99190.20;;;5.00
69545;BMP180;56766;52.260;20.746;2023-02-01T11:08:58;99189.00;;;5.40
69545;BMP180;56766;52.260;20.746;2023-02-01T11:11:28;99179.80;;;5.70
69545;BMP180;56766;52.260;20.746;2023-02-01T11:14:00;99181.60;;;5.80
69545;BMP180;56766;52.260;20.746;2023-02-01T11:16:36;99186.60;;;5.80
69545;BMP180;56766;52.260;20.746;2023-02-01T11:19:05;99184.40;;;5.70
69545;BMP180;56766;52.260;20.746;2023-02-01T11:21:34;99182.60;;;5.60
69545;BMP180;56766;52.260;20.746;2023-02-01T11:24:05;99178.60;;;5.44
69545;BMP180;56766;52.260;20.746;2023-02-01T11:26:40;99183.20;;;5.30
69545;BMP180;56766;52.260;20.746;2023-02-01T11:29:18;99182.80;;;5.20
69545;BMP180;56766;52.260;20.746;2023-02-01T11:31:58;99185.00;;;5.10
69545;BMP180;56766;52.260;20.746;2023-02-01T11:34:42;99176.80;;;5.02
69545;BMP180;56766;52.260;20.746;2023-02-01T11:37:21;99178.20;;;5.06
69545;BMP180;56766;52.260;20.746;2023-02-01T11:39:57;99167.80;;;5.08
69545;BMP180;56766;52.260;20.746;2023-02-01T11:42:27;99174.00;;;5.20
69545;BMP180;56766;52.260;20.746;2023-02-01T11:45:25;99172.40;;;5.40
69545;BMP180;56766;52.260;20.746;2023-02-01T11:47:54;99170.80;;;5.70
69545;BMP180;56766;52.260;20.746;2023-02-01T11:50:57;99169.40;;;5.80
69545;BMP180;56766;52.260;20.746;2023-02-01T11:56:49;99164.80;;;5.78
69545;BMP180;56766;52.260;20.746;2023-02-01T12:02:51;99162.20;;;5.60
69545;BMP180;56766;52.260;20.746;2023-02-01T12:05:41;99169.00;;;5.50
69545;BMP180;56766;52.260;20.746;2023-02-01T12:08:28;99167.20;;;5.40
69545;BMP180;56766;52.260;20.746;2023-02-01T12:14:18;99159.60;;;5.40
69545;BMP180;56766;52.260;20.746;2023-02-01T12:17:42;99164.60;;;5.44
69545;BMP180;56766;52.260;20.746;2023-02-01T12:23:46;99160.40;;;5.50
69545;BMP180;56766;52.260;20.746;2023-02-01T12:27:08;99156.00;;;5.50
69545;BMP180;56766;52.260;20.746;2023-02-01T12:39:11;99152.60;;;5.30
69545;BMP180;56766;52.260;20.746;2023-02-01T12:42:22;99151.20;;;5.30
69545;BMP180;56766;52.260;20.746;2023-02-01T12:48:08;99152.80;;;5.50
69545;BMP180;56766;52.260;20.746;2023-02-01T12:50:45;99144.60;;;5.48
69545;BMP180;56766;52.260;20.746;2023-02-01T12:54:04;99145.60;;;5.40
69545;BMP180;56766;52.260;20.746;2023-02-01T12:56:57;99152.00;;;5.50
69545;BMP180;56766;52.260;20.746;2023-02-01T12:59:39;99154.40;;;5.50
69545;BMP180;56766;52.260;20.746;2023-02-01T13:02:37;99152.20;;;5.40
69545;BMP180;56766;52.260;20.746;2023-02-01T13:05:17;99154.60;;;5.30
69545;BMP180;56766;52.260;20.746;2023-02-01T13:08:14;99160.00;;;5.20
69545;BMP180;56766;52.260;20.746;2023-02-01T13:10:57;99152.60;;;5.10
69545;BMP180;56766;52.260;20.746;2023-02-01T13:13:46;99156.00;;;5.04
69545;BMP180;56766;52.260;20.746;2023-02-01T13:16:30;99160.00;;;5.00
69545;BMP180;56766;52.260;20.746;2023-02-01T13:19:19;99164.60;;;5.00
69545;BMP180;56766;52.260;20.746;2023-02-01T13:21:55;99167.60;;;4.92
69545;BMP180;56766;52.260;20.746;2023-02-01T13:24:42;99171.60;;;4.90
69545;BMP180;56766;52.260;20.746;2023-02-01T13:27:15;99168.60;;;4.90
69545;BMP180;56766;52.260;20.746;2023-02-01T13:30:15;99175.20;;;4.80
69545;BMP180;56766;52.260;20.746;2023-02-01T13:36:34;99171.80;;;4.78
69545;BMP180;56766;52.260;20.746;2023-02-01T13:39:42;99169.60;;;4.70
69545;BMP180;56766;52.260;20.746;2023-02-01T13:43:11;99177.60;;;4.70
69545;BMP180;56766;52.260;20.746;2023-02-01T13:45:49;99172.20;;;4.60
69545;BMP180;56766;52.260;20.746;2023-02-01T13:48:33;99172.00;;;4.60
69545;BMP180;56766;52.260;20.746;2023-02-01T13:51:02;99172.40;;;4.50
69545;BMP180;56766;52.260;20.746;2023-02-01T13:53:34;99174.20;;;4.50
69545;BMP180;56766;52.260;20.746;2023-02-01T13:56:16;99174.20;;;4.50
69545;BMP180;56766;52.260;20.746;2023-02-01T13:58:46;99171.00;;;4.50
69545;BMP180;56766;52.260;20.746;2023-02-01T14:03:57;99168.40;;;4.50
69545;BMP180;56766;52.260;20.746;2023-02-01T14:11:53;99164.80;;;4.70
69545;BMP180;56766;52.260;20.746;2023-02-01T14:19:30;99165.60;;;4.76
69545;BMP180;56766;52.260;20.746;2023-02-01T14:24:56;99160.20;;;4.60
69545;BMP180;56766;52.260;20.746;2023-02-01T14:27:29;99161.40;;;4.60
69545;BMP180;56766;52.260;20.746;2023-02-01T14:30:06;99163.20;;;4.60
69545;BMP180;56766;52.260;20.746;2023-02-01T14:32:38;99163.00;;;4.60
69545;BMP180;56766;52.260;20.746;2023-02-01T14:35:28;99159.00;;;4.52
69545;BMP180;56766;52.260;20.746;2023-02-01T14:38:01;99160.40;;;4.50
69545;BMP180;56766;52.260;20.746;2023-02-01T14:40:34;99157.40;;;4.50
69545;BMP180;56766;52.260;20.746;2023-02-01T14:43:02;99163.00;;;4.50
69545;BMP180;56766;52.260;20.746;2023-02-01T14:55:50;99163.60;;;4.40
69545;BMP180;56766;52.260;20.746;2023-02-01T15:01:28;99169.20;;;4.30
69545;BMP180;56766;52.260;20.746;2023-02-01T15:04:14;99170.00;;;4.30
69545;BMP180;56766;52.260;20.746;2023-02-01T15:06:56;99173.20;;;4.22
69545;BMP180;56766;52.260;20.746;2023-02-01T15:09:47;99176.40;;;4.20
69545;BMP180;56766;52.260;20.746;2023-02-01T15:12:26;99174.60;;;4.20
69545;BMP180;56766;52.260;20.746;2023-02-01T15:15:17;99172.00;;;4.20
69545;BMP180;56766;52.260;20.746;2023-02-01T15:17:57;99178.00;;;4.20
69545;BMP180;56766;52.260;20.746;2023-02-01T15:20:31;99179.00;;;4.10
69545;BMP180;56766;52.260;20.746;2023-02-01T15:23:02;99176.80;;;4.10
69545;BMP180;56766;52.260;20.746;2023-02-01T15:25:38;99182.00;;;4.06
69545;BMP180;56766;52.260;20.746;2023-02-01T15:28:15;99181.80;;;4.00
69545;BMP180;56766;52.260;20.746;2023-02-01T15:31:00;99182.20;;;4.00
69545;BMP180;56766;52.260;20.746;2023-02-01T15:33:29;99182.20;;;4.00
69545;BMP180;56766;52.260;20.746;2023-02-01T15:36:09;99185.40;;;4.00
69545;BMP180;56766;52.260;20.746;2023-02-01T15:38:43;99190.20;;;3.90
69545;BMP180;56766;52.260;20.746;2023-02-01T15:41:16;99193.40;;;3.90
69545;BMP180;56766;52.260;20.746;2023-02-01T15:44:07;99191.40;;;3.86
69545;BMP180;56766;52.260;20.746;2023-02-01T15:46:45;99191.40;;;3.80
69545;BMP180;56766;52.260;20.746;2023-02-01T15:49:29;99193.40;;;3.80
69545;BMP180;56766;52.260;20.746;2023-02-01T15:52:00;99190.80;;;3.80
69545;BMP180;56766;52.260;20.746;2023-02-01T15:54:46;99196.40;;;3.80
69545;BMP180;56766;52.260;20.746;2023-02-01T15:57:28;99200.80;;;3.70
69545;BMP180;56766;52.260;20.746;2023-02-01T16:00:04;99200.60;;;3.70
69545;BMP180;56766;52.260;20.746;2023-02-01T16:02:50;99198.20;;;3.70
69545;BMP180;56766;52.260;20.746;2023-02-01T16:05:40;99200.60;;;3.60
69545;BMP180;56766;52.260;20.746;2023-02-01T16:08:24;99203.60;;;3.60
69545;BMP180;56766;52.260;20.746;2023-02-01T16:10:59;99202.60;;;3.60
69545;BMP180;56766;52.260;20.746;2023-02-01T16:13:26;99203.60;;;3.60
69545;BMP180;56766;52.260;20.746;2023-02-01T16:15:53;99202.40;;;3.60
69545;BMP180;56766;52.260;20.746;2023-02-01T16:18:19;99197.00;;;3.60
69545;BMP180;56766;52.260;20.746;2023-02-01T16:20:47;99200.20;;;3.60
69545;BMP180;56766;52.260;20.746;2023-02-01T16:23:14;99195.20;;;3.60
69545;BMP180;56766;52.260;20.746;2023-02-01T16:25:41;99203.00;;;3.60